Klickitat, WA

9:51 AM PDT on March 25, 2017 (GMT -0700)
Horseshoe Bend not Blockhouse | | Change Station

Elev 1550 ft 45.83 °N, 121.02 °W | Updated 1 minute ago

Mostly Cloudy
Mostly Cloudy
47.5 °F
Feels Like 45 °F
N
6.0
Wind Variable Wind from WNW

Today
High -- | Low -- °F
--% Chance of Precip.
Yesterday
High -- | Low -- °F
Precip. -- in
Pressure 30.14 in
Visibility 10.0 miles
Clouds Overcast 9000 ft
Windchill 45 °F
Dew Point 39 °F
Humidity 74%
Rainfall 0.00 in
Snow Depth Not available.
6:57 AM 7:24 PM
Waning Crescent, 7% visible
METAR KDLS 251553Z AUTO 00000KT 10SM OVC090 08/05 A3013 RMK AO2 SLP205 T00830050
Pressure 30.14 in
Visibility 10.0 miles
Clouds Overcast 9000 ft
Windchill 45 °F
Dew Point 39 °F
Humidity 74%
Rainfall 0.00 in
Snow Depth Not available.
6:57 AM 7:24 PM
Waning Crescent, 7% visible
METAR KDLS 251553Z AUTO 00000KT 10SM OVC090 08/05 A3013 RMK AO2 SLP205 T00830050

Get Severe Weather Alerts

Thanks for signing up!

Be on the lookout for a verification email in your inbox.

You'll start receiving the daily forecast at 8 AM.

×

10-Day Weather Forecast

Almanac

Astronomy

Mar. 25, 2017 Rise Set
Actual Time
Civil Twilight
Nautical Twilight
Astronomical Twilight
Moon
Length of Visible Light
Length of Day
Tomorrow will be .
, % of the Moon is Illuminated

Today's Extremes

State Highs State Lows

Community

WunderPhotos

Upload Photos

1,962,540 photos uploaded!

WunderBlog® & News

Nearby

Air Quality

  Air Quality AQ Index Pollutant
Not available.

Snow Depth

Station Depth Elevation

Earthquake Activity

City Distance Mag. Time & Date
Minimum magnitude displayed is 2.5.

Earthquake Activity

City Distance Mag. Time & Date
Minimum magnitude displayed is 2.5.

Coastal Water Temperatures

Place Temperature

Stations

Nearby Weather Stations

Station Location Temp. Windchill Dew Point Humidity Wind Precip. Elev Updated Type
                   

Watches & Warnings

There are currently no watches in effect.